createdAt,value
2018-08-04T00:01:16.290Z,99.90
2018-08-04T00:03:46.210Z,99.90
2018-08-04T00:06:16.350Z,99.90
2018-08-04T00:08:46.310Z,99.90
2018-08-04T00:11:16.610Z,99.90
2018-08-04T00:13:47.214Z,99.90
2018-08-04T00:16:17.030Z,99.90
2018-08-04T00:18:46.630Z,99.90
2018-08-04T00:21:16.550Z,99.90
2018-08-04T00:23:46.414Z,99.90
2018-08-04T00:26:16.350Z,99.90
2018-08-04T00:28:46.253Z,99.90
2018-08-04T00:31:16.430Z,99.90
2018-08-04T00:33:46.210Z,99.90
2018-08-04T00:36:16.173Z,99.90
2018-08-04T00:38:46.480Z,99.90
2018-08-04T00:41:16.531Z,99.90
2018-08-04T00:43:46.350Z,99.90
2018-08-04T00:46:16.010Z,99.90
2018-08-04T00:48:46.010Z,99.90
2018-08-04T00:51:15.790Z,99.90
2018-08-04T00:53:46.190Z,99.90
2018-08-04T00:56:16.210Z,99.90
2018-08-04T00:58:45.969Z,99.90
2018-08-04T01:01:15.950Z,99.90
2018-08-04T01:03:46.434Z,99.90
2018-08-04T01:06:16.290Z,99.90
2018-08-04T01:08:47.210Z,99.90
2018-08-04T01:11:32.570Z,99.90
2018-08-04T01:14:02.320Z,99.90
2018-08-04T01:16:32.050Z,99.90
2018-08-04T01:19:01.850Z,99.90
2018-08-04T01:21:31.810Z,99.90
2018-08-04T01:24:01.450Z,99.90
2018-08-04T01:26:31.829Z,99.90
2018-08-04T01:29:01.990Z,99.90
2018-08-04T01:31:31.610Z,99.90
2018-08-04T01:34:01.487Z,99.90
2018-08-04T01:36:31.720Z,99.90
2018-08-04T01:39:01.674Z,99.90
2018-08-04T01:41:31.474Z,99.90
2018-08-04T01:46:31.470Z,99.90
2018-08-04T01:49:01.390Z,99.90
2018-08-04T01:51:31.596Z,99.90
2018-08-04T01:54:01.937Z,99.90
2018-08-04T01:56:31.796Z,99.90
2018-08-04T01:59:01.835Z,99.90
2018-08-04T02:01:32.074Z,99.90
2018-08-04T02:04:02.597Z,99.90
2018-08-04T02:06:32.636Z,99.90
2018-08-04T02:09:02.633Z,99.90
2018-08-04T02:11:32.576Z,99.90
2018-08-04T02:14:02.493Z,99.90
2018-08-04T02:16:32.702Z,99.90
2018-08-04T02:19:03.656Z,99.90
2018-08-04T02:21:34.036Z,99.90
2018-08-04T02:24:04.915Z,99.90
2018-08-04T02:26:35.615Z,99.90
2018-08-04T02:29:06.296Z,99.90
2018-08-04T02:31:36.136Z,99.90
2018-08-04T02:34:06.216Z,99.90
2018-08-04T02:36:36.497Z,99.90
2018-08-04T02:39:09.056Z,99.90
2018-08-04T02:41:38.795Z,99.90
2018-08-04T02:44:08.655Z,99.90
2018-08-04T02:46:38.936Z,99.90
2018-08-04T02:49:08.775Z,99.90
2018-08-04T02:51:38.416Z,99.90
2018-08-04T02:54:08.567Z,99.90
2018-08-04T02:56:38.396Z,99.90
2018-08-04T02:59:08.253Z,99.90
2018-08-04T03:01:38.238Z,99.90
2018-08-04T03:04:08.210Z,99.90
2018-08-04T03:06:38.076Z,99.90
2018-08-04T03:09:11.095Z,99.90
2018-08-04T03:11:40.776Z,99.90
2018-08-04T03:14:10.301Z,99.90
2018-08-04T03:16:39.857Z,99.90
2018-08-04T03:19:09.576Z,99.90
2018-08-04T03:21:38.916Z,99.90
2018-08-04T03:24:08.398Z,99.90
2018-08-04T03:26:38.155Z,99.90
2018-08-04T03:29:08.242Z,99.90
2018-08-04T03:31:37.796Z,99.90
2018-08-04T03:34:07.700Z,99.90
2018-08-04T03:36:37.670Z,99.90
2018-08-04T03:39:10.775Z,99.90
2018-08-04T03:41:41.035Z,99.90
2018-08-04T03:44:10.533Z,99.90
2018-08-04T03:46:40.175Z,99.90
2018-08-04T03:49:09.735Z,99.90
2018-08-04T03:51:39.255Z,99.90
2018-08-04T03:54:08.795Z,99.90
2018-08-04T03:56:38.595Z,99.90
2018-08-04T03:59:08.135Z,99.90
2018-08-04T04:01:37.796Z,99.90
2018-08-04T04:04:07.528Z,99.90
2018-08-04T04:06:37.117Z,99.90
2018-08-04T04:09:09.796Z,99.90
2018-08-04T04:11:39.348Z,99.90
2018-08-04T04:14:08.895Z,99.90
2018-08-04T04:16:38.315Z,99.90
2018-08-04T04:19:08.237Z,99.90
2018-08-04T04:21:37.635Z,99.90
2018-08-04T04:24:07.435Z,99.90
2018-08-04T04:26:37.428Z,99.90
2018-08-04T04:29:07.115Z,99.90
2018-08-04T04:34:05.876Z,99.90
2018-08-04T04:36:35.736Z,99.90
2018-08-04T04:39:08.375Z,99.90
2018-08-04T04:41:38.437Z,99.90
2018-08-04T04:44:08.495Z,99.90
2018-08-04T04:46:39.595Z,99.90
2018-08-04T04:49:16.156Z,99.90
2018-08-04T04:51:45.756Z,99.90
2018-08-04T04:54:15.416Z,99.90
2018-08-04T04:56:44.916Z,99.90
2018-08-04T04:59:14.516Z,99.90
2018-08-04T05:01:43.996Z,99.90
2018-08-04T05:04:13.596Z,99.90
2018-08-04T05:09:12.324Z,99.90
2018-08-04T05:11:41.816Z,99.90
2018-08-04T05:14:11.737Z,99.90
2018-08-04T05:16:41.238Z,99.90
2018-08-04T05:19:10.776Z,99.90
2018-08-04T05:21:40.936Z,99.90
2018-08-04T05:24:10.877Z,99.90
2018-08-04T05:26:40.968Z,99.90
2018-08-04T05:31:40.576Z,99.90
2018-08-04T05:34:10.445Z,99.90
2018-08-04T05:36:39.956Z,99.90
2018-08-04T05:39:11.813Z,99.90
2018-08-04T05:41:41.376Z,99.90
2018-08-04T05:46:40.616Z,99.90
2018-08-04T05:49:10.556Z,99.90
2018-08-04T05:51:40.236Z,99.90
2018-08-04T05:54:10.053Z,99.90
2018-08-04T05:56:39.657Z,99.90
2018-08-04T05:59:09.356Z,99.90
2018-08-04T06:01:39.316Z,99.90
2018-08-04T06:04:09.236Z,99.90
2018-08-04T06:11:38.898Z,99.90
2018-08-04T06:14:09.016Z,99.90
2018-08-04T06:16:39.019Z,99.90
2018-08-04T06:19:08.819Z,99.90
2018-08-04T06:21:38.456Z,99.90
2018-08-04T06:24:07.996Z,99.90
2018-08-04T06:26:37.604Z,99.90
2018-08-04T06:29:07.037Z,99.90
2018-08-04T06:31:36.625Z,99.90
2018-08-04T06:34:06.236Z,99.90
2018-08-04T06:36:36.016Z,99.90
2018-08-04T06:39:07.836Z,99.90
2018-08-04T06:41:37.482Z,99.90
2018-08-04T06:44:07.156Z,99.90
2018-08-04T06:46:36.716Z,99.90
2018-08-04T06:49:06.608Z,99.90
2018-08-04T06:51:36.376Z,99.90
2018-08-04T06:54:05.936Z,99.90
2018-08-04T06:56:36.204Z,99.90
2018-08-04T06:59:05.824Z,99.90
2018-08-04T07:01:35.368Z,99.90
2018-08-04T07:04:05.133Z,99.90
2018-08-04T07:06:34.753Z,99.90
2018-08-04T07:09:06.236Z,99.90
2018-08-04T07:11:35.917Z,99.90
2018-08-04T07:14:07.136Z,99.90
2018-08-04T07:16:37.497Z,99.90
2018-08-04T07:19:07.077Z,99.90
2018-08-04T07:21:36.600Z,99.90
2018-08-04T07:24:06.357Z,99.90
2018-08-04T07:26:36.176Z,99.90
2018-08-04T07:29:05.927Z,99.90
2018-08-04T07:31:35.617Z,99.90
2018-08-04T07:34:05.436Z,99.90
2018-08-04T07:36:35.001Z,99.90
2018-08-04T07:41:35.336Z,99.90
2018-08-04T07:44:05.596Z,99.90
2018-08-04T07:46:36.077Z,99.90
2018-08-04T07:49:05.891Z,99.90
2018-08-04T07:51:35.476Z,99.90
2018-08-04T07:54:05.057Z,99.90
2018-08-04T07:56:34.976Z,99.90
2018-08-04T07:59:04.636Z,99.90
2018-08-04T08:01:34.176Z,99.90
2018-08-04T08:04:03.716Z,99.90
2018-08-04T08:06:33.316Z,99.90
2018-08-04T08:09:03.376Z,99.90
2018-08-04T08:11:32.856Z,99.90
2018-08-04T08:14:02.597Z,99.90
2018-08-04T08:16:32.119Z,99.90
2018-08-04T08:19:01.736Z,99.90
2018-08-04T08:21:31.336Z,99.90
2018-08-04T08:24:00.896Z,99.90
2018-08-04T08:26:30.396Z,99.20
2018-08-04T08:28:59.916Z,98.90
2018-08-04T08:31:29.597Z,99.00
2018-08-04T08:33:59.217Z,98.20
2018-08-04T08:36:28.817Z,98.50
2018-08-04T08:38:58.436Z,98.50
2018-08-04T08:41:28.117Z,97.00
2018-08-04T08:43:57.577Z,97.90
2018-08-04T08:46:27.279Z,97.00
2018-08-04T08:48:56.796Z,95.90
2018-08-04T08:51:26.356Z,95.50
2018-08-04T08:53:56.068Z,96.20
2018-08-04T08:56:25.817Z,95.70
2018-08-04T08:58:55.856Z,95.90
2018-08-04T09:01:25.435Z,95.10
2018-08-04T09:03:55.176Z,95.40
2018-08-04T09:06:25.053Z,95.20
2018-08-04T09:08:54.797Z,93.40
2018-08-04T09:11:24.596Z,92.50
2018-08-04T09:13:54.176Z,93.10
2018-08-04T09:16:23.737Z,93.90
2018-08-04T09:18:53.796Z,92.30
2018-08-04T09:23:53.036Z,91.70
2018-08-04T09:26:22.548Z,91.40
2018-08-04T09:28:52.197Z,89.60
2018-08-04T09:31:21.977Z,90.90
2018-08-04T09:33:51.669Z,90.40
2018-08-04T09:36:21.636Z,90.40
2018-08-04T09:38:51.276Z,91.00
2018-08-04T09:41:21.076Z,90.00
2018-08-04T09:43:50.679Z,88.30
2018-08-04T09:46:20.178Z,86.70
2018-08-04T09:48:50.116Z,88.20
2018-08-04T09:51:19.936Z,87.30
2018-08-04T09:53:50.083Z,88.30
2018-08-04T09:56:19.636Z,87.50
2018-08-04T09:58:49.617Z,86.00
2018-08-04T10:01:24.736Z,87.30
2018-08-04T10:03:54.496Z,86.60
2018-08-04T10:06:24.096Z,83.10
2018-08-04T10:08:53.636Z,77.60
2018-08-04T10:11:23.439Z,77.60
2018-08-04T10:13:53.157Z,80.90
2018-08-04T10:18:52.516Z,79.20
2018-08-04T10:21:22.037Z,78.20
2018-08-04T10:23:51.623Z,76.60
2018-08-04T10:26:21.229Z,74.40
2018-08-04T10:28:50.802Z,73.00
2018-08-04T10:31:20.457Z,72.50
2018-08-04T10:33:49.956Z,70.40
2018-08-04T10:36:19.536Z,70.70
2018-08-04T10:38:49.196Z,70.30
2018-08-04T10:41:18.833Z,66.90
2018-08-04T10:43:48.377Z,64.80
2018-08-04T10:46:17.956Z,66.00
2018-08-04T10:48:47.376Z,64.70
2018-08-04T10:51:17.036Z,68.10
2018-08-04T10:53:46.696Z,67.80
2018-08-04T10:56:16.256Z,67.30
2018-08-04T11:01:15.648Z,65.20
2018-08-04T11:03:45.552Z,65.00
2018-08-04T11:06:15.718Z,65.50
2018-08-04T11:08:45.396Z,64.40
2018-08-04T11:11:14.936Z,62.40
2018-08-04T11:13:44.437Z,62.30
2018-08-04T11:16:14.077Z,63.10
2018-08-04T11:21:13.698Z,61.30
2018-08-04T11:23:43.297Z,60.90
2018-08-04T11:26:12.917Z,59.30
2018-08-04T11:29:13.497Z,58.60
2018-08-04T11:31:42.917Z,58.20
2018-08-04T11:34:12.756Z,58.10
2018-08-04T11:36:42.617Z,59.10
2018-08-04T11:39:12.796Z,59.20
2018-08-04T11:44:12.357Z,59.30
2018-08-04T11:46:41.896Z,58.40
2018-08-04T11:49:11.408Z,58.60
2018-08-04T11:51:40.987Z,58.00
2018-08-04T11:54:10.476Z,57.00
2018-08-04T11:56:40.116Z,58.30
2018-08-04T11:59:09.976Z,58.30
2018-08-04T12:01:39.956Z,58.80
2018-08-04T12:04:09.553Z,57.80
2018-08-04T12:06:39.096Z,57.00
2018-08-04T12:09:12.019Z,57.10
2018-08-04T12:11:42.336Z,54.80
2018-08-04T12:14:12.339Z,55.40
2018-08-04T12:16:42.218Z,55.80
2018-08-04T12:19:11.676Z,57.00
2018-08-04T12:21:41.288Z,53.70
2018-08-04T12:24:10.776Z,54.00
2018-08-04T12:26:40.940Z,55.60
2018-08-04T12:29:10.456Z,56.00
2018-08-04T12:31:40.017Z,55.80
2018-08-04T12:34:09.916Z,56.10
2018-08-04T12:36:39.844Z,55.60
2018-08-04T12:39:11.316Z,54.50
2018-08-04T12:41:41.021Z,54.80
2018-08-04T12:44:10.637Z,53.80
2018-08-04T12:46:40.236Z,54.30
2018-08-04T12:49:09.836Z,54.00
2018-08-04T12:51:39.933Z,53.40
2018-08-04T12:54:09.736Z,52.70
2018-08-04T12:56:39.623Z,52.40
2018-08-04T12:59:09.736Z,53.50
2018-08-04T13:01:39.362Z,53.20
2018-08-04T13:04:08.912Z,53.90
2018-08-04T13:06:38.516Z,53.50
2018-08-04T13:09:10.996Z,52.20
2018-08-04T13:11:40.537Z,51.90
2018-08-04T13:14:10.076Z,53.20
2018-08-04T13:16:39.697Z,53.50
2018-08-04T13:19:09.333Z,53.40
2018-08-04T13:21:38.702Z,53.20
2018-08-04T13:24:08.201Z,52.80
2018-08-04T13:26:37.840Z,52.00
2018-08-04T13:29:07.421Z,51.20
2018-08-04T13:31:37.082Z,51.40
2018-08-04T13:34:06.662Z,51.70
2018-08-04T13:36:36.470Z,52.00
2018-08-04T13:39:10.620Z,51.40
2018-08-04T13:41:40.520Z,51.90
2018-08-04T13:44:10.080Z,52.30
2018-08-04T13:46:40.016Z,50.80
2018-08-04T13:49:09.500Z,51.20
2018-08-04T13:51:39.143Z,52.30
2018-08-04T13:54:08.901Z,51.30
2018-08-04T13:56:38.580Z,52.00
2018-08-04T13:59:08.220Z,52.60
2018-08-04T14:01:37.861Z,51.40
2018-08-04T14:04:07.756Z,50.50
2018-08-04T14:06:37.400Z,51.20
2018-08-04T14:09:09.940Z,51.60
2018-08-04T14:11:39.961Z,51.50
2018-08-04T14:14:09.600Z,51.10
2018-08-04T14:16:39.206Z,49.50
2018-08-04T14:19:08.763Z,51.60
2018-08-04T14:21:38.300Z,51.80
2018-08-04T14:24:07.921Z,51.40
2018-08-04T14:26:37.740Z,52.00
2018-08-04T14:29:07.261Z,52.20
2018-08-04T14:31:37.164Z,52.30
2018-08-04T14:34:06.741Z,51.30
2018-08-04T14:36:36.380Z,51.80
2018-08-04T14:39:11.122Z,52.40
2018-08-04T14:41:40.740Z,51.80
2018-08-04T14:44:10.560Z,51.30
2018-08-04T14:46:40.221Z,54.70
2018-08-04T14:49:10.081Z,53.20
2018-08-04T14:51:39.701Z,52.00
2018-08-04T14:54:09.301Z,54.10
2018-08-04T14:56:38.860Z,54.40
2018-08-04T14:59:08.481Z,53.70
2018-08-04T15:01:38.060Z,52.70
2018-08-04T15:04:07.671Z,54.00
2018-08-04T15:06:44.115Z,53.80
2018-08-04T15:09:13.697Z,53.60
2018-08-04T15:11:43.540Z,57.00
2018-08-04T15:14:13.121Z,57.80
2018-08-04T15:21:41.347Z,58.30
2018-08-04T15:26:40.160Z,58.70
2018-08-04T15:29:09.980Z,59.50
2018-08-04T15:31:39.740Z,59.20
2018-08-04T15:36:38.660Z,59.60
2018-08-04T15:41:39.320Z,59.10
2018-08-04T15:44:08.935Z,59.10
2018-08-04T15:46:38.556Z,59.00
2018-08-04T15:49:08.315Z,58.80
2018-08-04T15:51:37.907Z,58.70
2018-08-04T15:54:07.494Z,58.50
2018-08-04T15:56:36.994Z,58.70
2018-08-04T15:59:06.635Z,58.70
2018-08-04T16:01:36.517Z,59.20
2018-08-04T16:04:06.239Z,59.10
2018-08-04T16:06:35.697Z,59.00
2018-08-04T16:09:07.897Z,59.10
2018-08-04T16:11:37.620Z,59.10
2018-08-04T16:14:07.406Z,59.60
2018-08-04T16:16:37.348Z,60.00
2018-08-04T16:19:07.326Z,59.90
2018-08-04T16:21:36.966Z,60.60
2018-08-04T16:24:06.523Z,60.60
2018-08-04T16:26:36.076Z,60.80
2018-08-04T16:29:05.527Z,60.70
2018-08-04T16:31:35.376Z,60.70
2018-08-04T16:34:04.992Z,61.00
2018-08-04T16:36:34.516Z,61.10
2018-08-04T16:39:06.296Z,61.80
2018-08-04T16:41:36.017Z,61.90
2018-08-04T16:44:12.536Z,61.50
2018-08-04T16:46:42.051Z,61.90
2018-08-04T16:49:11.652Z,61.60
2018-08-04T16:51:41.216Z,62.00
2018-08-04T16:54:10.835Z,62.50
2018-08-04T16:56:40.358Z,62.90
2018-08-04T16:59:09.809Z,63.00
2018-08-04T17:01:39.223Z,63.20
2018-08-04T17:04:08.713Z,63.40
2018-08-04T17:06:38.348Z,63.30
2018-08-04T17:09:11.832Z,63.30
2018-08-04T17:11:41.612Z,63.60
2018-08-04T17:14:11.533Z,65.30
2018-08-04T17:16:41.333Z,63.20
2018-08-04T17:19:11.013Z,65.10
2018-08-04T17:21:40.669Z,67.90
2018-08-04T17:24:10.293Z,68.30
2018-08-04T17:26:39.912Z,69.80
2018-08-04T17:29:09.772Z,73.00
2018-08-04T17:31:39.494Z,72.00
2018-08-04T17:34:09.452Z,70.70
2018-08-04T17:36:38.992Z,69.80
2018-08-04T17:39:10.340Z,70.70
2018-08-04T17:41:40.253Z,72.40
2018-08-04T17:44:09.812Z,73.60
2018-08-04T17:46:39.393Z,76.30
2018-08-04T17:49:09.136Z,76.80
2018-08-04T17:51:38.728Z,77.00
2018-08-04T17:54:08.336Z,77.30
2018-08-04T17:56:38.157Z,77.80
2018-08-04T17:59:07.936Z,78.10
2018-08-04T18:01:37.636Z,78.70
2018-08-04T18:04:07.336Z,78.90
2018-08-04T18:06:36.956Z,79.20
2018-08-04T18:09:09.656Z,78.90
2018-08-04T18:11:40.068Z,79.40
2018-08-04T18:14:09.911Z,79.90
2018-08-04T18:16:39.810Z,80.60
2018-08-04T18:19:09.310Z,80.80
2018-08-04T18:21:39.128Z,81.30
2018-08-04T18:24:09.131Z,81.60
2018-08-04T18:26:38.625Z,83.00
2018-08-04T18:29:08.189Z,83.70
2018-08-04T18:31:38.088Z,85.20
2018-08-04T18:34:08.248Z,86.70
2018-08-04T18:36:38.288Z,88.10
2018-08-04T18:39:09.148Z,89.50
2018-08-04T18:41:38.825Z,90.10
2018-08-04T18:44:15.348Z,90.40
2018-08-04T18:46:46.089Z,91.30
2018-08-04T18:49:15.700Z,91.40
2018-08-04T18:51:45.355Z,91.80
2018-08-04T18:54:14.987Z,92.30
2018-08-04T18:56:44.565Z,92.40
2018-08-04T18:59:14.468Z,92.50
2018-08-04T19:01:44.294Z,92.70
2018-08-04T19:04:14.080Z,93.00
2018-08-04T19:06:44.445Z,93.60
2018-08-04T19:09:14.561Z,94.20
2018-08-04T19:11:44.303Z,94.30
2018-08-04T19:14:14.592Z,94.50
2018-08-04T19:16:45.423Z,94.80
2018-08-04T19:19:15.515Z,95.40
2018-08-04T19:21:45.945Z,96.10
2018-08-04T19:24:16.306Z,96.60
2018-08-04T19:26:45.926Z,96.70
2018-08-04T19:29:15.550Z,96.90
2018-08-04T19:31:45.229Z,97.00
2018-08-04T19:34:15.204Z,97.30
2018-08-04T19:36:44.988Z,97.70
2018-08-04T19:39:14.428Z,98.10
2018-08-04T19:41:43.948Z,98.50
2018-08-04T19:44:13.469Z,98.80
2018-08-04T19:46:43.045Z,98.90
2018-08-04T19:49:12.468Z,99.00
2018-08-04T19:51:42.077Z,99.10
2018-08-04T19:54:11.869Z,99.10
2018-08-04T19:56:41.628Z,99.10
2018-08-04T19:59:11.268Z,98.90
2018-08-04T20:01:40.840Z,98.90
2018-08-04T20:04:10.268Z,98.90
2018-08-04T20:09:11.082Z,99.40
2018-08-04T20:11:41.089Z,99.60
2018-08-04T20:14:10.628Z,99.90
2018-08-04T20:16:40.548Z,99.90
2018-08-04T20:19:10.209Z,99.90
2018-08-04T20:21:39.868Z,99.90
2018-08-04T20:24:09.414Z,99.90
2018-08-04T20:26:39.231Z,99.90
2018-08-04T20:29:09.071Z,99.90
2018-08-04T20:31:38.710Z,99.90
2018-08-04T20:36:37.869Z,99.90
2018-08-04T20:39:09.969Z,99.90
2018-08-04T20:41:39.640Z,99.90
2018-08-04T20:44:09.238Z,99.90
2018-08-04T20:46:38.870Z,99.90
2018-08-04T20:49:08.585Z,99.90
2018-08-04T20:51:38.151Z,99.90
2018-08-04T20:54:08.052Z,99.90
2018-08-04T20:56:37.991Z,99.90
2018-08-04T20:59:07.720Z,99.90
2018-08-04T21:02:10.272Z,99.90
2018-08-04T21:04:40.131Z,99.90
2018-08-04T21:07:09.799Z,99.90
2018-08-04T21:09:39.339Z,99.90
2018-08-04T21:12:09.202Z,99.90
2018-08-04T21:14:38.740Z,99.90
2018-08-04T21:17:08.217Z,99.90
2018-08-04T21:19:37.679Z,99.90
2018-08-04T21:22:07.679Z,99.90
2018-08-04T21:24:37.199Z,99.90
2018-08-04T21:27:07.080Z,99.90
2018-08-04T21:29:36.944Z,99.90
2018-08-04T21:32:06.679Z,99.90
2018-08-04T21:34:36.219Z,99.90
2018-08-04T21:37:06.199Z,99.90
2018-08-04T21:39:35.660Z,99.90
2018-08-04T21:42:05.359Z,99.90
2018-08-04T21:44:35.209Z,99.90
2018-08-04T21:47:05.200Z,99.90
2018-08-04T21:49:34.815Z,99.90
2018-08-04T21:52:04.419Z,99.90
2018-08-04T21:54:34.055Z,99.90
2018-08-04T21:57:03.619Z,99.90
2018-08-04T21:59:33.155Z,99.90
2018-08-04T22:02:02.832Z,99.90
2018-08-04T22:04:32.332Z,99.90
2018-08-04T22:08:15.794Z,99.90
2018-08-04T22:10:45.233Z,99.90
2018-08-04T22:15:43.912Z,99.90
2018-08-04T22:18:13.392Z,99.90
2018-08-04T22:20:42.933Z,99.90
2018-08-04T22:23:12.477Z,99.90
2018-08-04T22:25:42.076Z,99.90
2018-08-04T22:28:11.732Z,99.90
2018-08-04T22:30:41.492Z,99.90
2018-08-04T22:33:11.311Z,99.90
2018-08-04T22:35:41.372Z,99.90
2018-08-04T22:38:11.052Z,99.90
2018-08-04T22:40:40.572Z,99.90
2018-08-04T22:43:10.192Z,99.90
2018-08-04T22:46:08.314Z,99.90
2018-08-04T22:48:38.132Z,99.90
2018-08-04T22:51:07.752Z,99.90
2018-08-04T22:53:37.273Z,99.90
2018-08-04T22:56:06.832Z,99.90
2018-08-04T22:58:36.234Z,99.90
2018-08-04T23:01:05.932Z,99.90
2018-08-04T23:06:04.732Z,99.90
2018-08-04T23:08:34.352Z,99.90
2018-08-04T23:11:03.732Z,99.90
2018-08-04T23:13:33.274Z,99.90
2018-08-04T23:16:02.932Z,99.90
2018-08-04T23:18:32.574Z,99.90
2018-08-04T23:23:32.232Z,99.90
2018-08-04T23:26:02.172Z,99.90
2018-08-04T23:28:31.676Z,99.90
2018-08-04T23:31:01.252Z,99.90
2018-08-04T23:33:31.331Z,99.90
2018-08-04T23:36:00.912Z,99.90
2018-08-04T23:38:30.372Z,99.90
2018-08-04T23:41:00.572Z,99.90
2018-08-04T23:45:59.312Z,99.90
2018-08-04T23:48:29.092Z,99.90
2018-08-04T23:53:27.928Z,99.90
2018-08-04T23:55:57.412Z,99.90
2018-08-04T23:58:26.992Z,99.90
